Boynton Beach, FL

5:05 PM EDT on June 02, 2015 (GMT -0400)
Boynton Beach Community High School WeatherSTEM | | Change Station
CLOSE
Current Station
Personal Weather Station
Location: Boynton Beach, FL
Elevation: 29 ft
Nearby Weather Stations

Elev 29 ft 26.54 °N, 80.08 °W | Updated 13 minutes ago

Overcast
Overcast
81.3 °F
Feels Like 86 °F
N
7.0
Wind Variable Wind from East
Gusts 9.0 mph

Today
High -- | Low -- °F
--% Chance of Precip.
Yesterday
High -- | Low -- °F
Precip. -- in
6:27 AM 8:09 PM
Full, 100% visible
Pressure 29.96 in
Visibility 10.0 miles
Clouds Few 3000 ft
Scattered Clouds 17000 ft
Overcast 25000 ft
Heat Index 86 °F
Dew Point 72 °F
Humidity 73%
Rainfall 0.00 in
Snow Depth Not available.
UV 1.2 out of 12
Pollen 1.50 out of 12
Air Quality Not available.
Flu Activity Sporadic
METAR KPBI 022053Z 11006KT 10SM FEW030 SCT170 OVC250 28/21 A2996 RMK AO2 SLP143 CB DSNT SW-NW T02780206 56019 $

More Conditions Fewer Conditions

Pressure 29.96 in
Visibility 10.0 miles
Clouds Few 3000 ft
Scattered Clouds 17000 ft
Overcast 25000 ft
Heat Index 86 °F
Dew Point 72 °F
Humidity 73%
Rainfall 0.00 in
Snow Depth Not available.
UV 1.2 out of 12
Pollen 1.50 out of 12
Air Quality Not available.
Flu Activity Sporadic
METAR KPBI 022053Z 11006KT 10SM FEW030 SCT170 OVC250 28/21 A2996 RMK AO2 SLP143 CB DSNT SW-NW T02780206 56019 $

More Conditions Fewer Conditions

Nowcast | as of 4:48 PM EDT on June 2, 2015

A few showers over the Gulf Stream between Miami Beach and Bimini are moving west and may affect coastal sections of Miami-Dade and Broward counties through 7 PM. Otherwise, mostly dry conditions are expected over Southeast Florida despite cloudy skies.

×

10-Day Weather Forecast

×

Almanac

Astronomy

Jun. 02, 2015 Rise Set
Actual Time
Civil Twilight
Nautical Twilight
Astronomical Twilight
Moon
Length of Visible Light
Length of Day
Tomorrow will be .
, % of the Moon is Illuminated

Today's Extremes

State Highs State Lows

Community

WunderPhotos

Upload Photos

1,826,034 photos uploaded!

WunderBlogs® & News

Nearby

Air Quality

  Air Quality AQ Index Pollutant
Not available.

Snow Depth

Station Depth Elevation

Earthquake Activity

City Distance Mag. Time & Date
Minimum magnitude displayed is 2.5.

Coastal Water Temperatures

Place Temperature

Stations

Nearby Weather Stations

Station Location Temp. Windchill Dew Point Humidity Wind Precip. Elev Updated Type